Time;durP1;ratioP1;P1;durP2;ratioP2;P2;SDS_P1;SDS_P2;PMS_P1;PMS_P2;Temp;Humidity;BMP_temperature;BMP_pressure;BME280_temperature;BME280_humidity;BME280_pressure;Samples;Min_cycle;Max_cycle;Signal;HPM_P1;HPM_P2
2023/03/14 00:01:11;;;;;;;0.30;0.30;;;4.50;99.90;;;;;;6248815;23;20000;-89
2023/03/14 00:03:37;;;;;;;0.30;0.28;;;4.50;99.90;;;;;;6222139;23;20016;-89
2023/03/14 00:06:04;;;;;;;0.40;0.40;;;4.40;99.90;;;;;;6220636;23;20036;-88
2023/03/14 00:08:30;;;;;;;0.60;0.40;;;4.50;99.90;;;;;;6247920;23;20004;-88
2023/03/14 00:10:57;;;;;;;0.57;0.40;;;4.50;99.90;;;;;;6246975;23;20305;-88
2023/03/14 00:13:23;;;;;;;0.40;0.32;;;4.40;99.90;;;;;;6246745;23;20015;-88
2023/03/14 00:15:49;;;;;;;0.68;0.45;;;4.50;99.90;;;;;;6220804;23;20011;-88
2023/03/14 00:18:15;;;;;;;0.30;0.30;;;4.50;99.90;;;;;;6220699;23;20012;-89
2023/03/14 00:20:41;;;;;;;0.52;0.50;;;4.40;99.90;;;;;;6220007;23;20087;-89
2023/03/14 00:23:06;;;;;;;1.88;0.50;;;4.50;99.90;;;;;;6220084;23;20012;-88
2023/03/14 00:25:32;;;;;;;4.35;1.00;;;4.50;99.90;;;;;;6220334;23;20006;-88
2023/03/14 00:27:58;;;;;;;1.05;0.65;;;4.40;99.90;;;;;;6220691;23;20004;-88
2023/03/14 00:30:23;;;;;;;0.50;0.25;;;4.40;99.90;;;;;;6221362;23;20083;-88
2023/03/14 00:32:49;;;;;;;1.52;0.35;;;4.40;99.90;;;;;;6220381;23;20008;-89
2023/03/14 00:35:15;;;;;;;0.55;0.45;;;4.50;99.90;;;;;;6219989;23;20007;-89
2023/03/14 00:37:41;;;;;;;3.83;1.55;;;4.50;99.90;;;;;;6219716;23;20134;-89
2023/03/14 00:40:08;;;;;;;0.45;0.45;;;4.50;99.90;;;;;;6219934;23;20032;-89
2023/03/14 00:42:34;;;;;;;0.35;0.20;;;4.50;99.90;;;;;;6219950;23;20004;-90
2023/03/14 00:45:00;;;;;;;0.93;0.40;;;4.50;99.90;;;;;;6246663;23;20004;-89
2023/03/14 00:47:25;;;;;;;0.68;0.30;;;4.50;99.90;;;;;;6220190;23;20004;-88
2023/03/14 00:49:51;;;;;;;0.28;0.28;;;4.50;99.90;;;;;;6219423;23;20485;-88
2023/03/14 00:52:17;;;;;;;0.30;0.28;;;4.50;99.90;;;;;;6220349;23;20083;-88
2023/03/14 00:54:42;;;;;;;0.20;0.20;;;4.50;99.90;;;;;;6220113;23;20081;-89
2023/03/14 00:57:08;;;;;;;0.63;0.32;;;4.40;99.90;;;;;;6246468;23;20068;-89
2023/03/14 00:59:34;;;;;;;0.77;0.40;;;4.40;99.90;;;;;;6194102;23;20020;-89
2023/03/14 01:01:59;;;;;;;0.35;0.30;;;4.40;99.90;;;;;;6220009;23;20008;-89
2023/03/14 01:04:25;;;;;;;0.25;0.22;;;4.40;99.90;;;;;;6246955;23;20031;-90
2023/03/14 01:06:51;;;;;;;0.80;0.50;;;4.30;99.90;;;;;;6220934;23;20012;-88
2023/03/14 01:09:17;;;;;;;0.40;0.40;;;4.30;99.90;;;;;;6246413;23;20328;-89
2023/03/14 01:11:46;;;;;;;0.63;0.63;;;4.20;99.90;;;;;;6220126;23;20008;-89
2023/03/14 01:14:13;;;;;;;0.93;0.70;;;4.20;99.90;;;;;;6219858;23;20015;-89
2023/03/14 01:16:38;;;;;;;2.10;0.90;;;4.20;99.90;;;;;;6219651;23;20008;-90
2023/03/14 01:19:04;;;;;;;1.25;1.00;;;4.20;99.90;;;;;;6219792;23;20016;-89
2023/03/14 01:21:32;;;;;;;1.20;0.80;;;4.20;99.90;;;;;;6246775;23;20002;-89
2023/03/14 01:24:04;;;;;;;0.80;0.77;;;4.10;99.90;;;;;;6219375;23;20388;-88
2023/03/14 01:26:33;;;;;;;2.15;1.15;;;4.10;99.90;;;;;;6219455;23;20012;-91
2023/03/14 01:28:59;;;;;;;1.48;0.80;;;4.10;99.90;;;;;;6219553;23;20008;-88
2023/03/14 01:31:26;;;;;;;0.95;0.85;;;4.10;99.90;;;;;;6219192;23;20428;-89
2023/03/14 01:33:52;;;;;;;0.90;0.80;;;4.00;99.90;;;;;;6219404;23;20004;-87
2023/03/14 01:36:18;;;;;;;1.15;0.60;;;4.00;99.90;;;;;;6219175;23;20466;-89
2023/03/14 01:38:44;;;;;;;0.68;0.50;;;4.00;99.90;;;;;;6219293;23;20027;-88
2023/03/14 01:41:15;;;;;;;0.98;0.60;;;3.90;99.90;;;;;;6219552;23;20000;-89
2023/03/14 01:43:41;;;;;;;;;;;3.80;99.90;;;;;;6219629;23;20086;-88
2023/03/14 01:46:06;;;;;;;3.33;0.60;;;3.80;99.90;;;;;;6219251;23;20346;-88
2023/03/14 01:48:55;;;;;;;2.25;0.70;;;3.80;99.90;;;;;;6246184;23;20011;-87
2023/03/14 01:51:23;;;;;;;0.52;0.40;;;3.70;99.90;;;;;;6219310;23;20008;-91
2023/03/14 01:53:50;;;;;;;4.18;0.63;;;3.70;99.90;;;;;;6219257;23;20062;-90
2023/03/14 01:56:17;;;;;;;2.60;0.80;;;3.70;99.90;;;;;;6219340;23;20000;-87
2023/03/14 01:58:46;;;;;;;4.72;0.88;;;3.70;99.90;;;;;;6220509;23;20525;-90
2023/03/14 02:01:14;;;;;;;4.00;0.77;;;3.60;99.90;;;;;;6223133;23;20000;-89
2023/03/14 02:03:47;;;;;;;4.57;0.70;;;3.60;99.90;;;;;;6219388;23;20008;-90
2023/03/14 02:06:17;;;;;;;3.17;0.70;;;3.60;99.90;;;;;;6219259;23;20435;-89
2023/03/14 02:08:47;;;;;;;2.25;0.90;;;3.60;99.90;;;;;;6219548;23;20012;-90
2023/03/14 02:11:13;;;;;;;0.52;0.43;;;3.60;99.90;;;;;;6220556;23;20008;-90
2023/03/14 02:13:39;;;;;;;3.28;0.80;;;3.60;99.90;;;;;;6221455;23;20336;-90
2023/03/14 02:16:05;;;;;;;2.83;0.52;;;3.50;99.90;;;;;;6248225;23;20319;-90
2023/03/14 02:18:30;;;;;;;2.20;0.70;;;3.50;99.90;;;;;;6247479;23;20008;-90
2023/03/14 02:21:02;;;;;;;1.90;0.45;;;3.50;99.90;;;;;;6221272;23;20054;-89
2023/03/14 02:23:52;;;;;;;1.48;0.60;;;3.40;99.90;;;;;;6221224;23;20015;-90
2023/03/14 02:26:43;;;;;;;0.45;0.30;;;3.40;99.90;;;;;;6247841;23;20490;-89
2023/03/14 02:29:08;;;;;;;3.50;0.70;;;3.40;99.90;;;;;;6247899;23;20031;-89
2023/03/14 02:31:34;;;;;;;3.28;0.70;;;3.30;99.90;;;;;;6221137;23;20439;-89
2023/03/14 02:34:01;;;;;;;2.15;0.40;;;3.30;99.90;;;;;;6221165;23;20004;-88
2023/03/14 02:36:28;;;;;;;3.03;0.52;;;3.20;99.90;;;;;;6247485;23;20053;-89
2023/03/14 02:39:14;;;;;;;3.10;0.82;;;3.20;99.90;;;;;;6221310;23;20012;-88
2023/03/14 02:41:39;;;;;;;0.50;0.50;;;3.20;99.90;;;;;;6221125;23;20371;-89
2023/03/14 02:44:05;;;;;;;2.00;0.70;;;3.20;99.90;;;;;;6220664;23;20104;-90
2023/03/14 02:46:31;;;;;;;0.35;0.32;;;3.20;99.90;;;;;;6221269;23;20010;-89
2023/03/14 02:49:02;;;;;;;0.65;0.60;;;3.20;99.90;;;;;;6222351;23;20008;-89
2023/03/14 02:51:29;;;;;;;5.75;0.63;;;3.20;99.90;;;;;;6248387;23;20032;-90
2023/03/14 02:53:55;;;;;;;2.80;0.90;;;3.20;99.90;;;;;;6251388;23;20129;-90
2023/03/14 02:56:20;;;;;;;3.50;0.70;;;3.20;99.90;;;;;;6223357;23;20008;-90
2023/03/14 02:58:46;;;;;;;3.83;1.17;;;3.20;99.90;;;;;;6252757;23;20016;-89
2023/03/14 03:01:12;;;;;;;4.53;0.85;;;3.10;99.90;;;;;;6226598;23;20000;-90
2023/03/14 03:03:37;;;;;;;1.17;0.55;;;3.20;99.90;;;;;;6238412;23;20051;-88
2023/03/14 03:06:03;;;;;;;3.65;0.98;;;3.10;99.90;;;;;;6248595;23;20011;-89
2023/03/14 03:08:29;;;;;;;7.57;0.95;;;3.10;99.90;;;;;;6247957;23;19996;-89
2023/03/14 03:10:57;;;;;;;2.60;0.88;;;3.10;99.90;;;;;;6229512;23;20015;-88
2023/03/14 03:13:22;;;;;;;1.38;0.70;;;3.00;99.90;;;;;;6250120;23;20071;-89
2023/03/14 03:15:48;;;;;;;4.85;0.60;;;3.00;99.90;;;;;;6223650;23;20062;-89
2023/03/14 03:18:14;;;;;;;6.15;1.00;;;3.00;99.90;;;;;;6222993;23;20008;-90
2023/03/14 03:20:40;;;;;;;2.75;0.75;;;3.00;99.90;;;;;;6248737;23;20020;-90
2023/03/14 03:23:05;;;;;;;4.45;0.77;;;3.00;99.90;;;;;;6247202;23;20004;-90
2023/03/14 03:25:31;;;;;;;3.45;1.42;;;3.00;99.90;;;;;;6247962;23;20109;-90
2023/03/14 03:27:57;;;;;;;1.55;0.90;;;3.00;99.90;;;;;;6221121;23;20065;-90
2023/03/14 03:30:23;;;;;;;7.78;1.30;;;3.00;99.90;;;;;;6221537;23;20105;-90
2023/03/14 03:32:49;;;;;;;6.07;1.38;;;2.90;99.90;;;;;;6248110;23;20000;-90
2023/03/14 03:35:15;;;;;;;5.03;1.20;;;2.90;99.90;;;;;;6221169;23;20000;-89
2023/03/14 03:37:41;;;;;;;11.00;1.25;;;2.90;99.90;;;;;;6247492;23;20079;-90
2023/03/14 03:40:07;;;;;;;5.68;0.90;;;2.90;99.90;;;;;;6247756;23;20000;-90
2023/03/14 03:42:34;;;;;;;9.07;1.63;;;2.90;99.90;;;;;;6247462;23;20046;-89
2023/03/14 03:45:02;;;;;;;8.55;1.10;;;2.90;99.90;;;;;;6221318;23;20435;-90
2023/03/14 03:47:29;;;;;;;6.10;0.80;;;2.90;99.90;;;;;;6247383;23;20007;-90
2023/03/14 03:49:55;;;;;;;1.92;0.50;;;2.90;99.90;;;;;;6220187;23;20008;-89
2023/03/14 03:52:20;;;;;;;2.45;0.60;;;2.90;99.90;;;;;;6221111;23;20432;-90
2023/03/14 03:54:46;;;;;;;6.78;1.35;;;2.90;99.90;;;;;;6220683;23;20004;-89
2023/03/14 03:57:12;;;;;;;3.28;0.77;;;2.90;99.90;;;;;;6220223;23;20010;-89
2023/03/14 03:59:39;;;;;;;4.28;0.85;;;2.90;99.90;;;;;;6215258;23;20016;-89
2023/03/14 04:02:06;;;;;;;7.80;1.13;;;2.90;99.90;;;;;;6217733;23;20000;-88
2023/03/14 04:04:31;;;;;;;7.28;1.33;;;2.90;99.90;;;;;;6217311;23;20004;-89
2023/03/14 04:06:57;;;;;;;10.52;1.40;;;2.80;99.90;;;;;;6216860;23;20107;-89
2023/03/14 04:09:22;;;;;;;18.52;1.73;;;2.80;99.90;;;;;;6217535;23;20051;-89
2023/03/14 04:11:48;;;;;;;6.22;1.00;;;2.80;99.90;;;;;;6215732;23;20047;-88
2023/03/14 04:14:14;;;;;;;7.85;1.67;;;2.80;99.90;;;;;;6216765;23;20001;-88
2023/03/14 04:16:39;;;;;;;8.88;1.38;;;2.70;99.90;;;;;;6215519;23;20004;-88
2023/03/14 04:19:05;;;;;;;9.30;1.33;;;2.60;99.90;;;;;;6216514;23;20024;-88
2023/03/14 04:21:31;;;;;;;10.50;1.60;;;2.60;99.90;;;;;;6215098;23;20075;-89
2023/03/14 04:23:56;;;;;;;7.57;1.65;;;2.60;99.90;;;;;;6217295;23;20000;-89
2023/03/14 04:26:22;;;;;;;15.57;2.20;;;2.60;99.90;;;;;;6215100;23;20059;-88
2023/03/14 04:28:48;;;;;;;13.80;2.10;;;2.50;99.90;;;;;;6215767;23;20016;-89
2023/03/14 04:31:21;;;;;;;10.25;1.17;;;2.60;99.90;;;;;;6217471;23;20382;-89
2023/03/14 04:33:47;;;;;;;12.90;1.48;;;2.50;99.90;;;;;;6215494;23;20440;-89
2023/03/14 04:36:13;;;;;;;10.77;2.05;;;2.50;99.90;;;;;;6215186;23;20048;-91
2023/03/14 04:38:39;;;;;;;8.95;1.42;;;2.60;99.90;;;;;;6214787;23;20017;-89
2023/03/14 04:41:05;;;;;;;8.95;1.73;;;2.60;99.90;;;;;;6216524;23;19997;-89
2023/03/14 04:43:30;;;;;;;7.95;1.23;;;2.60;99.90;;;;;;6216840;23;20063;-90
2023/03/14 04:45:57;;;;;;;11.75;2.00;;;2.50;99.90;;;;;;6215421;23;20004;-89
2023/03/14 04:48:24;;;;;;;15.23;1.90;;;2.60;99.90;;;;;;6217218;23;20004;-90
2023/03/14 04:50:50;;;;;;;14.70;1.48;;;2.60;99.90;;;;;;6215191;23;20040;-90
2023/03/14 04:53:17;;;;;;;8.20;1.83;;;2.60;99.90;;;;;;6215219;23;20000;-90
2023/03/14 04:55:47;;;;;;;3.15;0.80;;;2.60;99.90;;;;;;6214861;23;20444;-90
2023/03/14 04:58:12;;;;;;;5.78;0.85;;;2.60;99.90;;;;;;6214702;23;20024;-90
2023/03/14 05:00:38;;;;;;;4.15;1.00;;;2.60;99.90;;;;;;6214677;23;20375;-89
2023/03/14 05:03:03;;;;;;;11.93;1.40;;;2.60;99.90;;;;;;6214705;23;20050;-91
2023/03/14 05:05:29;;;;;;;11.05;1.90;;;2.60;99.90;;;;;;6216434;23;20001;-90
2023/03/14 05:07:55;;;;;;;11.82;2.38;;;2.60;99.90;;;;;;6214950;23;20013;-88
2023/03/14 05:10:20;;;;;;;15.77;2.30;;;2.60;99.90;;;;;;6214611;23;20424;-90
2023/03/14 05:12:46;;;;;;;14.55;1.90;;;2.50;99.90;;;;;;6214849;23;20376;-90
2023/03/14 05:15:11;;;;;;;13.98;2.22;;;2.60;99.90;;;;;;6215695;23;20127;-90
2023/03/14 05:17:37;;;;;;;11.38;1.25;;;2.50;99.90;;;;;;6216138;23;20031;-89
2023/03/14 05:20:12;;;;;;;13.73;2.60;;;2.50;99.90;;;;;;6214623;23;20012;-90
2023/03/14 05:22:38;;;;;;;7.65;1.00;;;2.50;99.90;;;;;;6214686;23;20012;-88
2023/03/14 05:25:04;;;;;;;12.10;2.10;;;2.50;99.90;;;;;;6214710;23;20009;-89
2023/03/14 05:27:30;;;;;;;12.88;1.70;;;2.50;99.90;;;;;;6216073;23;20030;-89
2023/03/14 05:29:56;;;;;;;11.68;1.90;;;2.50;99.90;;;;;;6214698;23;20003;-89
2023/03/14 05:32:21;;;;;;;13.38;1.98;;;2.50;99.90;;;;;;6215196;23;20095;-89
2023/03/14 05:34:47;;;;;;;19.17;2.67;;;2.50;99.90;;;;;;6215726;23;20000;-89
2023/03/14 05:37:13;;;;;;;12.60;1.85;;;2.50;99.90;;;;;;6215697;23;20017;-90
2023/03/14 05:39:38;;;;;;;18.23;2.17;;;2.40;99.90;;;;;;6215151;23;20028;-89
2023/03/14 05:42:04;;;;;;;19.92;2.03;;;2.40;99.90;;;;;;6216192;23;20067;-89
2023/03/14 05:44:30;;;;;;;15.27;2.30;;;2.40;99.90;;;;;;6215262;23;20004;-89
2023/03/14 05:46:55;;;;;;;17.35;3.28;;;2.30;99.90;;;;;;6216583;23;20001;-88
2023/03/14 05:49:21;;;;;;;14.07;2.35;;;2.30;99.90;;;;;;6216977;23;20019;-89
2023/03/14 05:51:47;;;;;;;13.63;2.33;;;2.30;99.90;;;;;;6216879;23;20001;-90
2023/03/14 05:54:12;;;;;;;14.70;2.03;;;2.40;99.90;;;;;;6216487;23;20008;-89
2023/03/14 05:56:38;;;;;;;20.33;2.25;;;2.40;99.90;;;;;;6218300;23;20032;-88
2023/03/14 05:59:04;;;;;;;18.92;2.00;;;2.40;99.90;;;;;;6242451;23;20391;-88
2023/03/14 06:01:30;;;;;;;14.80;2.25;;;2.40;99.90;;;;;;6223771;23;20000;-89
2023/03/14 06:03:56;;;;;;;12.00;2.03;;;2.40;99.90;;;;;;6221715;23;20004;-89
2023/03/14 06:06:22;;;;;;;9.05;1.75;;;2.30;99.90;;;;;;6221853;23;20031;-89
2023/03/14 06:08:48;;;;;;;17.60;2.83;;;2.30;99.90;;;;;;6221815;23;20004;-90
2023/03/14 06:11:13;;;;;;;14.43;1.95;;;2.30;99.90;;;;;;6221895;23;20043;-90
2023/03/14 06:13:39;;;;;;;20.00;3.17;;;2.30;99.90;;;;;;6221283;23;20099;-88
2023/03/14 06:16:06;;;;;;;20.75;2.60;;;2.30;99.90;;;;;;6248079;23;20008;-91
2023/03/14 06:18:31;;;;;;;17.83;2.33;;;2.20;99.90;;;;;;6221434;23;20015;-90
2023/03/14 06:20:58;;;;;;;18.73;3.35;;;2.20;99.90;;;;;;6248686;23;20026;-90
2023/03/14 06:23:24;;;;;;;21.17;2.25;;;2.20;99.90;;;;;;6221246;23;20016;-90
2023/03/14 06:25:50;;;;;;;19.38;2.20;;;2.20;99.90;;;;;;6221336;23;20008;-90
2023/03/14 06:28:15;;;;;;;16.88;1.73;;;2.10;99.90;;;;;;6221488;23;20004;-90
2023/03/14 06:30:41;;;;;;;17.23;2.00;;;2.20;99.90;;;;;;6221935;23;20036;-91
2023/03/14 06:33:06;;;;;;;12.80;1.33;;;2.20;99.90;;;;;;6248152;23;20011;-89
2023/03/14 06:35:32;;;;;;;13.80;1.98;;;2.20;99.90;;;;;;6221585;23;20007;-90
2023/03/14 06:37:58;;;;;;;13.02;1.60;;;2.20;99.90;;;;;;6220948;23;20340;-89
2023/03/14 06:40:23;;;;;;;10.45;2.00;;;2.20;99.90;;;;;;6248015;23;20061;-90
2023/03/14 06:42:49;;;;;;;10.68;1.70;;;2.20;99.90;;;;;;6221089;23;20000;-90
2023/03/14 06:45:15;;;;;;;24.42;3.08;;;2.20;99.90;;;;;;6246566;23;20007;-89
2023/03/14 06:47:41;;;;;;;8.38;1.50;;;2.20;99.90;;;;;;6218706;23;20412;-89
2023/03/14 06:50:08;;;;;;;13.30;1.98;;;2.20;99.90;;;;;;6219355;23;20008;-89
2023/03/14 06:52:34;;;;;;;13.65;1.77;;;2.10;99.90;;;;;;6219291;23;20012;-88
2023/03/14 06:54:59;;;;;;;12.18;1.70;;;2.10;99.90;;;;;;6220175;23;20008;-89
2023/03/14 06:57:25;;;;;;;15.45;2.10;;;2.10;99.90;;;;;;6220107;23;20020;-89
2023/03/14 06:59:51;;;;;;;14.70;1.73;;;2.10;99.90;;;;;;6218865;23;20439;-89
2023/03/14 07:02:16;;;;;;;17.10;2.58;;;2.10;99.90;;;;;;6221491;23;20020;-89
2023/03/14 07:04:42;;;;;;;11.00;1.48;;;2.10;99.90;;;;;;6219856;23;20000;-89
2023/03/14 07:07:08;;;;;;;18.98;2.20;;;2.10;99.90;;;;;;6220567;23;20004;-89
2023/03/14 07:09:34;;;;;;;10.20;1.55;;;2.10;99.90;;;;;;6247213;23;20004;-88
2023/03/14 07:12:00;;;;;;;12.65;2.60;;;2.10;99.90;;;;;;6247364;23;19997;-88
2023/03/14 07:14:26;;;;;;;12.90;1.88;;;2.20;99.90;;;;;;6220961;23;20007;-89
2023/03/14 07:16:52;;;;;;;20.63;2.63;;;2.10;99.90;;;;;;6219876;23;20054;-89
2023/03/14 07:19:17;;;;;;;19.35;2.25;;;2.10;99.90;;;;;;6245640;23;20051;-89
2023/03/14 07:21:43;;;;;;;17.02;1.48;;;2.10;99.90;;;;;;6220640;23;20008;-90
2023/03/14 07:24:09;;;;;;;13.10;1.70;;;2.10;99.90;;;;;;6220748;23;20454;-89
2023/03/14 07:26:35;;;;;;;9.88;2.08;;;2.10;99.90;;;;;;6220751;23;20004;-89
2023/03/14 07:29:03;;;;;;;12.10;1.80;;;2.10;99.90;;;;;;6220589;23;19996;-90
2023/03/14 07:31:29;;;;;;;13.85;2.08;;;2.10;99.90;;;;;;6221407;23;20004;-90
2023/03/14 07:33:54;;;;;;;14.77;1.92;;;2.10;99.90;;;;;;6220835;23;20002;-91
2023/03/14 07:36:21;;;;;;;14.35;2.00;;;2.20;99.90;;;;;;6221160;23;20036;-90
2023/03/14 07:38:46;;;;;;;16.80;1.73;;;2.10;99.90;;;;;;6195597;23;20016;-89
2023/03/14 07:41:12;;;;;;;10.90;1.55;;;2.20;99.90;;;;;;6221790;23;20062;-89
2023/03/14 07:43:38;;;;;;;10.02;2.03;;;2.20;99.90;;;;;;6221190;23;20012;-90
2023/03/14 07:46:04;;;;;;;10.07;1.77;;;2.20;99.90;;;;;;6220675;23;20028;-90
2023/03/14 07:48:30;;;;;;;21.70;3.10;;;2.20;99.90;;;;;;6221233;23;20026;-90
2023/03/14 07:50:56;;;;;;;14.57;2.75;;;2.20;99.90;;;;;;6221329;23;20008;-89
2023/03/14 07:53:22;;;;;;;13.50;2.08;;;2.20;99.90;;;;;;6227397;23;20091;-88
2023/03/14 07:55:49;;;;;;;19.50;3.08;;;2.20;99.90;;;;;;6234780;23;20008;-89
2023/03/14 07:58:15;;;;;;;8.05;1.35;;;2.30;99.90;;;;;;6260931;23;20019;-88
2023/03/14 08:00:41;;;;;;;21.17;3.53;;;2.20;99.90;;;;;;6225153;23;20000;-88
2023/03/14 08:03:06;;;;;;;14.68;1.75;;;2.30;99.90;;;;;;6220072;23;20004;-88
2023/03/14 08:05:38;;;;;;;15.02;2.47;;;2.30;99.90;;;;;;6220551;23;20031;-91
2023/03/14 08:08:04;;;;;;;25.95;2.85;;;2.30;99.90;;;;;;6225235;23;20094;-91
2023/03/14 08:10:30;;;;;;;14.02;3.38;;;2.40;99.90;;;;;;6225540;23;20095;-89
2023/03/14 08:12:57;;;;;;;15.73;1.80;;;2.40;99.90;;;;;;6223885;23;20004;-91
2023/03/14 08:15:24;;;;;;;13.38;1.52;;;2.40;99.90;;;;;;6245930;23;20440;-90
2023/03/14 08:17:51;;;;;;;18.35;2.15;;;2.40;99.90;;;;;;6219099;23;20016;-89
2023/03/14 08:20:17;;;;;;;14.32;2.05;;;2.50;99.90;;;;;;6219389;23;20312;-90
2023/03/14 08:22:43;;;;;;;10.63;2.33;;;2.50;99.90;;;;;;6220775;23;20011;-91
2023/03/14 08:25:09;;;;;;;18.67;1.90;;;2.60;99.90;;;;;;6219604;23;20008;-91
2023/03/14 08:27:37;;;;;;;12.20;1.48;;;2.60;99.90;;;;;;6220925;23;20004;-91
2023/03/14 08:30:04;;;;;;;16.00;2.15;;;2.70;99.90;;;;;;6220451;23;20040;-91
2023/03/14 08:32:30;;;;;;;15.38;2.05;;;2.70;99.90;;;;;;6221870;23;20022;-92
2023/03/14 08:34:55;;;;;;;13.27;2.42;;;2.70;99.90;;;;;;6227931;23;20068;-90
2023/03/14 08:37:21;;;;;;;13.10;2.25;;;2.70;99.90;;;;;;6226942;23;20467;-92
2023/03/14 08:39:47;;;;;;;9.00;1.85;;;2.70;99.90;;;;;;6229052;23;20004;-90
2023/03/14 08:42:13;;;;;;;13.75;2.10;;;2.80;99.90;;;;;;6244242;23;20004;-88
2023/03/14 08:44:38;;;;;;;10.30;2.10;;;2.90;99.90;;;;;;6245750;23;19996;-90
2023/03/14 08:47:04;;;;;;;7.78;1.70;;;2.90;99.90;;;;;;6246709;23;19989;-87
2023/03/14 08:49:30;;;;;;;12.02;1.88;;;2.90;99.90;;;;;;6246173;23;20000;-89
2023/03/14 08:51:55;;;;;;;9.95;2.78;;;3.00;99.90;;;;;;6245563;23;20015;-89
2023/03/14 08:54:21;;;;;;;17.25;2.72;;;3.00;99.90;;;;;;6257628;23;20027;-92
2023/03/14 08:56:46;;;;;;;21.80;2.97;;;3.10;99.90;;;;;;6221850;23;20441;-92
2023/03/14 08:59:12;;;;;;;22.70;4.50;;;3.10;99.90;;;;;;6248537;23;20015;-91
2023/03/14 09:01:38;;;;;;;16.73;2.70;;;3.20;99.90;;;;;;6223529;23;20000;-91
2023/03/14 09:04:03;;;;;;;17.80;2.72;;;3.30;99.90;;;;;;6226513;23;20344;-91
2023/03/14 09:06:29;;;;;;;20.00;2.80;;;3.30;99.90;;;;;;6259151;23;20056;-89
2023/03/14 09:08:55;;;;;;;15.60;3.38;;;3.30;99.90;;;;;;6230112;23;20074;-90
2023/03/14 09:11:20;;;;;;;14.05;2.97;;;3.40;99.90;;;;;;6228630;23;20032;-90
2023/03/14 09:13:46;;;;;;;21.15;3.83;;;3.50;99.90;;;;;;6253201;23;20465;-90
2023/03/14 09:16:12;;;;;;;17.98;3.80;;;3.60;99.90;;;;;;6249017;23;20000;-90
2023/03/14 09:18:38;;;;;;;17.73;3.55;;;3.60;99.90;;;;;;6221938;23;20043;-92
2023/03/14 09:21:03;;;;;;;16.33;2.88;;;3.70;99.90;;;;;;6221839;23;20004;-92
2023/03/14 09:23:29;;;;;;;17.52;2.58;;;3.80;99.90;;;;;;6219883;23;20054;-92
2023/03/14 09:25:56;;;;;;;19.05;2.88;;;3.90;99.90;;;;;;6221081;23;20168;-90
2023/03/14 09:28:22;;;;;;;13.93;2.58;;;3.90;99.90;;;;;;6195546;23;20336;-91
2023/03/14 09:30:49;;;;;;;22.25;4.45;;;4.00;99.90;;;;;;6218802;23;20030;-89
2023/03/14 09:33:15;;;;;;;15.80;3.90;;;4.10;99.90;;;;;;6220169;23;20321;-92
2023/03/14 09:35:41;;;;;;;17.13;3.38;;;4.30;99.90;;;;;;6219433;23;20000;-91
2023/03/14 09:38:07;;;;;;;15.57;2.70;;;4.40;99.90;;;;;;6219325;23;20005;-91
2023/03/14 09:40:35;;;;;;;11.35;2.17;;;4.50;99.90;;;;;;6219992;23;20008;-90
2023/03/14 09:43:02;;;;;;;18.30;2.38;;;4.60;99.90;;;;;;6219711;23;20379;-90
2023/03/14 09:45:33;;;;;;;15.52;2.55;;;4.60;99.90;;;;;;6219308;23;20019;-90
2023/03/14 09:48:03;;;;;;;11.40;2.58;;;4.70;99.90;;;;;;6246647;23;20004;-91
2023/03/14 09:50:46;;;;;;;11.80;2.10;;;4.70;99.90;;;;;;6246471;23;20004;-92
2023/03/14 09:53:42;;;;;;;8.57;1.45;;;4.80;99.90;;;;;;6219764;23;20058;-91
2023/03/14 09:56:24;;;;;;;18.83;2.42;;;5.00;99.90;;;;;;6218298;23;20444;-90
2023/03/14 09:59:02;;;;;;;11.52;2.55;;;5.20;99.90;;;;;;6221488;23;20020;-91
2023/03/14 10:01:30;;;;;;;10.90;1.75;;;5.50;99.90;;;;;;6218542;23;20064;-92
2023/03/14 10:04:00;;;;;;;16.38;2.03;;;5.60;99.90;;;;;;6219326;23;20008;-92
2023/03/14 10:06:30;;;;;;;12.60;2.00;;;5.80;99.90;;;;;;6218415;23;20096;-92
2023/03/14 10:08:59;;;;;;;17.13;3.00;;;6.00;99.90;;;;;;6218641;23;20004;-91
2023/03/14 10:11:25;;;;;;;15.07;3.38;;;6.30;99.90;;;;;;6218828;23;20011;-92
2023/03/14 10:14:14;;;;;;;8.45;2.85;;;6.50;99.90;;;;;;6218972;23;20019;-92
2023/03/14 10:16:45;;;;;;;8.75;1.50;;;6.70;99.90;;;;;;6244899;23;20019;-92
2023/03/14 10:19:14;;;;;;;15.88;2.20;;;6.80;99.90;;;;;;6193607;23;20031;-92
2023/03/14 10:22:01;;;;;;;15.35;2.60;;;7.00;99.90;;;;;;6218936;23;20019;-91
2023/03/14 10:24:30;;;;;;;9.35;1.90;;;7.00;99.90;;;;;;6245600;23;20039;-92
2023/03/14 10:27:05;;;;;;;7.88;1.48;;;7.20;99.90;;;;;;6245654;23;19996;-92
2023/03/14 10:29:33;;;;;;;13.20;1.80;;;7.30;99.90;;;;;;6220242;23;20023;-92
2023/03/14 10:32:10;;;;;;;9.88;1.63;;;7.50;99.90;;;;;;6220654;23;20008;-92
2023/03/14 10:34:38;;;;;;;12.80;2.83;;;7.70;99.90;;;;;;6222663;23;20004;-93
2023/03/14 10:37:25;;;;;;;10.10;1.90;;;7.70;99.90;;;;;;6221807;23;20004;-93
2023/03/14 10:39:55;;;;;;;8.40;1.98;;;7.80;99.90;;;;;;6247841;23;20000;-92
2023/03/14 10:42:41;;;;;;;9.48;1.70;;;7.90;98.40;;;;;;6220792;23;20073;-90
2023/03/14 10:45:28;;;;;;;11.15;2.35;;;7.90;95.80;;;;;;6198398;23;20023;-92
2023/03/14 10:47:57;;;;;;;11.55;1.92;;;8.00;95.60;;;;;;6248485;23;20007;-91
2023/03/14 10:50:23;;;;;;;16.98;1.38;;;7.90;95.80;;;;;;6196746;23;20012;-91
2023/03/14 10:52:50;;;;;;;13.25;1.65;;;7.80;94.20;;;;;;6220839;23;20031;-92
2023/03/14 10:55:16;;;;;;;8.65;1.83;;;7.60;93.30;;;;;;6220830;23;20011;-90
2023/03/14 10:57:43;;;;;;;6.93;1.60;;;7.50;93.60;;;;;;6220523;23;20051;-91
2023/03/14 11:00:18;;;;;;;10.70;1.02;;;7.30;93.60;;;;;;6221046;23;20451;-91
2023/03/14 11:03:20;;;;;;;11.02;1.83;;;7.00;93.50;;;;;;6235212;23;20332;-90
2023/03/14 11:05:48;;;;;;;8.55;1.60;;;6.80;94.00;;;;;;6206309;23;20455;-91
2023/03/14 11:08:30;;;;;;;12.60;1.75;;;6.60;94.10;;;;;;6221067;23;20462;-92
2023/03/14 11:11:23;;;;;;;6.32;1.38;;;6.30;94.80;;;;;;6220357;23;20030;-90
2023/03/14 11:14:09;;;;;;;12.73;2.80;;;6.20;95.50;;;;;;6220946;23;20035;-91
2023/03/14 11:17:18;;;;;;;9.75;1.33;;;6.10;96.20;;;;;;6219992;23;20366;-89
2023/03/14 11:20:29;;;;;;;7.75;1.58;;;5.90;96.50;;;;;;6095620;23;20022;-90
2023/03/14 11:23:04;;;;;;;10.05;1.52;;;5.70;96.90;;;;;;6049676;23;20085;-91
2023/03/14 11:25:44;;;;;;;11.38;1.98;;;5.50;97.50;;;;;;6072053;23;20007;-93
2023/03/14 11:28:37;;;;;;;11.05;1.75;;;5.30;98.20;;;;;;6072475;23;20006;-92
2023/03/14 11:31:16;;;;;;;9.18;1.85;;;5.00;99.00;;;;;;6094839;23;20104;-90
2023/03/14 11:33:53;;;;;;;9.02;1.52;;;4.70;99.90;;;;;;6070989;23;20007;-91
2023/03/14 11:36:27;;;;;;;5.78;1.60;;;4.30;99.90;;;;;;6072222;23;20009;-93
2023/03/14 11:38:58;;;;;;;4.07;0.88;;;4.00;99.90;;;;;;6072905;23;20049;-91
2023/03/14 11:41:38;;;;;;;2.17;0.80;;;3.70;99.90;;;;;;6072001;23;20038;-92
2023/03/14 11:44:16;;;;;;;2.13;0.47;;;3.50;99.90;;;;;;6071836;23;20016;-92
2023/03/14 11:46:50;;;;;;;5.60;0.65;;;3.30;99.90;;;;;;6072691;23;20010;-89
2023/03/14 11:49:34;;;;;;;4.10;1.10;;;3.30;99.90;;;;;;6071361;23;20007;-90
2023/03/14 11:52:05;;;;;;;5.30;1.50;;;3.20;99.90;;;;;;6071969;23;20474;-89
2023/03/14 11:54:37;;;;;;;5.05;1.88;;;3.20;99.90;;;;;;6221429;23;20031;-89
2023/03/14 11:57:15;;;;;;;2.75;0.90;;;3.50;99.90;;;;;;6220031;23;20139;-88
2023/03/14 12:00:12;;;;;;;0.77;0.55;;;3.70;99.90;;;;;;6217602;23;20031;-89
2023/03/14 12:03:04;;;;;;;4.47;1.20;;;4.10;99.90;;;;;;6247020;23;20004;-90
2023/03/14 12:06:08;;;;;;;2.25;0.85;;;4.60;99.90;;;;;;6221243;23;20008;-91
2023/03/14 12:08:53;;;;;;;2.67;0.85;;;5.30;99.90;;;;;;6220429;23;20018;-91
2023/03/14 12:11:32;;;;;;;1.63;0.90;;;6.10;99.90;;;;;;6248268;23;20551;-90
2023/03/14 12:13:58;;;;;;;2.65;0.57;;;6.70;99.90;;;;;;6247893;23;20003;-91
2023/03/14 12:26:57;;;;;;;2.25;0.93;;;9.10;99.90;;;;;;6209424;22;20027;-89
2023/03/14 12:29:23;;;;;;;3.92;1.00;;;9.10;99.90;;;;;;6189731;23;20533;-91
2023/03/14 12:32:08;;;;;;;5.78;1.10;;;8.90;99.90;;;;;;6190599;23;20009;-90
2023/03/14 12:34:45;;;;;;;4.88;1.00;;;8.40;99.90;;;;;;6216768;23;20012;-90
2023/03/14 12:37:22;;;;;;;5.68;0.90;;;7.80;99.90;;;;;;6190104;23;20012;-90
2023/03/14 12:40:09;;;;;;;4.50;1.50;;;7.30;99.90;;;;;;6189818;23;20001;-90
2023/03/14 12:42:41;;;;;;;8.10;1.17;;;6.80;99.90;;;;;;6189811;23;20032;-90
2023/03/14 12:45:29;;;;;;;3.78;0.70;;;6.30;99.90;;;;;;6189526;23;20001;-91
2023/03/14 12:48:15;;;;;;;10.15;2.08;;;6.00;99.90;;;;;;6215594;23;20437;-90
2023/03/14 12:50:46;;;;;;;12.85;1.80;;;5.70;99.90;;;;;;6216226;23;20001;-89
2023/03/14 12:53:52;;;;;;;7.95;1.02;;;5.50;99.90;;;;;;6216125;23;20004;-89
2023/03/14 12:56:35;;;;;;;2.60;1.20;;;5.20;99.90;;;;;;6131795;23;20015;-89
2023/03/14 12:59:13;;;;;;;9.88;2.92;;;5.00;99.90;;;;;;6216042;23;20111;-89
2023/03/14 13:01:48;;;;;;;5.30;0.80;;;4.80;99.90;;;;;;6189300;23;20008;-89
2023/03/14 13:04:14;;;;;;;8.02;1.65;;;4.80;99.90;;;;;;6217023;23;20009;-89
2023/03/14 13:06:56;;;;;;;4.20;1.05;;;4.90;99.90;;;;;;6189800;23;19996;-89
2023/03/14 13:09:34;;;;;;;9.05;0.90;;;4.90;99.90;;;;;;6192878;23;20032;-88
2023/03/14 13:12:16;;;;;;;9.18;1.33;;;4.80;99.90;;;;;;6201763;23;19997;-89
2023/03/14 13:14:47;;;;;;;5.22;0.98;;;4.70;99.90;;;;;;6200902;23;20109;-89